createdAt,value
2019-01-31T00:00:44.678Z,13.80
2019-01-31T00:03:42.761Z,13.83
2019-01-31T00:06:41.780Z,15.03
2019-01-31T00:09:43.536Z,14.83
2019-01-31T00:12:43.581Z,16.83
2019-01-31T00:15:54.689Z,13.67
2019-01-31T00:18:42.760Z,13.80
2019-01-31T00:22:07.522Z,13.97
2019-01-31T00:25:04.163Z,15.00
2019-01-31T00:28:19.978Z,15.33
2019-01-31T00:31:34.888Z,16.17
2019-01-31T00:34:33.580Z,16.33
2019-01-31T00:37:57.008Z,18.57
2019-01-31T00:40:43.327Z,16.97
2019-01-31T00:43:47.347Z,16.50
2019-01-31T00:47:04.285Z,17.80
2019-01-31T00:50:00.700Z,16.37
2019-01-31T00:53:11.725Z,18.00
2019-01-31T00:55:56.559Z,17.73
2019-01-31T00:59:14.999Z,20.20
2019-01-31T01:02:33.973Z,19.60
2019-01-31T01:05:37.303Z,19.87
2019-01-31T01:08:31.707Z,21.50
2019-01-31T01:11:41.511Z,20.93
2019-01-31T01:15:05.974Z,20.17
2019-01-31T01:18:02.921Z,21.47
2019-01-31T01:21:07.233Z,20.57
2019-01-31T01:24:09.691Z,20.27
2019-01-31T01:27:28.621Z,21.30
2019-01-31T01:30:08.397Z,20.27
2019-01-31T01:33:07.934Z,21.87
2019-01-31T01:36:16.311Z,20.83
2019-01-31T01:39:22.972Z,20.87
2019-01-31T01:42:16.622Z,22.40
2019-01-31T01:45:32.201Z,21.33
2019-01-31T01:48:13.324Z,20.77
2019-01-31T01:51:30.022Z,20.43
2019-01-31T01:54:24.869Z,21.67
2019-01-31T01:57:32.364Z,21.53
2019-01-31T02:00:20.208Z,20.53
2019-01-31T02:03:13.791Z,18.90
2019-01-31T02:06:02.518Z,20.33
2019-01-31T02:09:18.109Z,20.37
2019-01-31T02:12:30.154Z,18.03
2019-01-31T02:15:57.958Z,17.63
2019-01-31T02:18:54.468Z,17.83
2019-01-31T02:22:04.633Z,16.87
2019-01-31T02:24:44.368Z,18.07
2019-01-31T02:27:38.736Z,16.87
2019-01-31T02:30:37.536Z,16.87
2019-01-31T02:33:46.145Z,18.73
2019-01-31T02:36:56.402Z,16.97
2019-01-31T02:40:05.815Z,18.07
2019-01-31T02:43:05.466Z,17.30
2019-01-31T02:46:26.171Z,18.00
2019-01-31T02:49:38.774Z,19.03
2019-01-31T02:52:50.778Z,19.90
2019-01-31T02:56:22.030Z,21.00
2019-01-31T02:59:10.446Z,20.30
2019-01-31T03:02:13.902Z,20.37
2019-01-31T03:05:33.598Z,20.27
2019-01-31T03:08:21.919Z,21.03
2019-01-31T03:11:24.604Z,20.90
2019-01-31T03:14:13.353Z,21.30
2019-01-31T03:17:31.141Z,21.50
2019-01-31T03:20:13.178Z,20.50
2019-01-31T03:23:27.887Z,20.77
2019-01-31T03:26:51.802Z,19.07
2019-01-31T03:30:06.950Z,19.40
2019-01-31T03:33:20.853Z,18.27
2019-01-31T03:36:20.657Z,19.63
2019-01-31T03:39:37.701Z,19.47
2019-01-31T03:42:38.920Z,19.27
2019-01-31T03:45:51.861Z,18.87
2019-01-31T03:48:57.626Z,18.47
2019-01-31T03:52:28.462Z,17.70
2019-01-31T03:55:22.659Z,17.33
2019-01-31T03:58:09.788Z,16.70
2019-01-31T04:01:13.819Z,17.13
2019-01-31T04:03:59.778Z,17.93
2019-01-31T04:06:34.635Z,17.73
2019-01-31T04:09:09.591Z,38.03
2019-01-31T04:11:41.196Z,18.17
2019-01-31T04:14:13.080Z,18.57
2019-01-31T04:16:45.702Z,18.10
2019-01-31T04:19:17.640Z,19.00
2019-01-31T04:21:49.232Z,18.77
2019-01-31T04:24:20.980Z,18.33
2019-01-31T04:26:53.211Z,18.57
2019-01-31T04:29:24.814Z,19.57
2019-01-31T04:31:56.325Z,17.73
2019-01-31T04:34:27.665Z,18.67
2019-01-31T04:36:59.508Z,17.53
2019-01-31T04:39:32.058Z,19.13
2019-01-31T04:42:04.451Z,18.37
2019-01-31T04:44:36.190Z,18.77
2019-01-31T04:47:08.650Z,19.07
2019-01-31T04:49:40.158Z,18.33
2019-01-31T04:52:12.157Z,18.30
2019-01-31T04:54:45.396Z,19.03
2019-01-31T04:57:18.380Z,19.13
2019-01-31T04:59:50.078Z,18.37
2019-01-31T05:02:22.486Z,19.07
2019-01-31T05:04:54.058Z,18.10
2019-01-31T05:07:25.579Z,17.40
2019-01-31T05:09:57.509Z,18.27
2019-01-31T05:12:29.116Z,19.63
2019-01-31T05:15:00.836Z,18.70
2019-01-31T05:17:32.421Z,19.27
2019-01-31T05:20:05.572Z,19.13
2019-01-31T05:22:37.054Z,19.40
2019-01-31T05:25:10.496Z,18.60
2019-01-31T05:27:43.472Z,20.00
2019-01-31T05:30:16.165Z,19.30
2019-01-31T05:32:48.110Z,17.90
2019-01-31T05:35:20.050Z,18.67
2019-01-31T05:37:51.948Z,19.20
2019-01-31T05:40:23.575Z,17.77
2019-01-31T05:42:55.318Z,18.40
2019-01-31T05:45:26.922Z,18.97
2019-01-31T05:47:58.275Z,18.50
2019-01-31T05:50:29.836Z,18.33
2019-01-31T05:53:02.298Z,18.57
2019-01-31T05:55:33.772Z,18.53
2019-01-31T05:58:05.304Z,20.53
2019-01-31T06:00:38.994Z,18.90
2019-01-31T06:03:11.339Z,18.23
2019-01-31T06:05:42.816Z,19.30
2019-01-31T06:08:14.741Z,19.67
2019-01-31T06:10:48.071Z,19.77
2019-01-31T06:13:19.780Z,19.53
2019-01-31T06:15:51.383Z,19.87
2019-01-31T06:18:22.875Z,19.77
2019-01-31T06:20:54.660Z,18.53
2019-01-31T06:23:26.421Z,18.70
2019-01-31T06:25:58.421Z,18.77
2019-01-31T06:28:30.991Z,19.87
2019-01-31T06:31:02.481Z,18.50
2019-01-31T06:33:34.396Z,20.10
2019-01-31T06:36:05.929Z,19.80
2019-01-31T06:38:37.387Z,19.20
2019-01-31T06:41:18.376Z,18.23
2019-01-31T06:43:44.584Z,20.17
2019-01-31T06:46:15.996Z,19.47
2019-01-31T06:48:47.387Z,18.97
2019-01-31T06:51:20.738Z,19.70
2019-01-31T06:53:52.088Z,18.37
2019-01-31T06:56:23.768Z,18.97
2019-01-31T06:58:55.564Z,18.70
2019-01-31T07:01:27.123Z,19.87
2019-01-31T07:03:59.330Z,21.70
2019-01-31T07:06:30.867Z,19.40
2019-01-31T07:09:04.005Z,23.07
2019-01-31T07:11:36.738Z,20.23
2019-01-31T07:14:08.289Z,18.97
2019-01-31T07:16:40.162Z,33.07
2019-01-31T07:19:13.062Z,19.23
2019-01-31T07:21:44.796Z,23.27
2019-01-31T07:24:18.417Z,18.50
2019-01-31T07:26:50.080Z,18.77
2019-01-31T07:29:22.608Z,17.17
2019-01-31T07:31:54.357Z,19.10
2019-01-31T07:34:25.982Z,16.90
2019-01-31T07:36:59.951Z,17.97
2019-01-31T07:39:32.369Z,16.63
2019-01-31T07:42:04.159Z,15.23
2019-01-31T07:44:35.683Z,19.47
2019-01-31T07:47:07.814Z,18.73
2019-01-31T07:49:42.949Z,19.53
2019-01-31T07:52:14.641Z,16.47
2019-01-31T07:54:46.552Z,23.13
2019-01-31T07:57:19.564Z,16.37
2019-01-31T07:59:51.376Z,14.97
2019-01-31T08:02:23.129Z,15.70
2019-01-31T08:04:54.706Z,15.93
2019-01-31T08:07:28.739Z,16.70
2019-01-31T08:09:59.637Z,16.13
2019-01-31T08:12:34.578Z,16.60
2019-01-31T08:15:07.850Z,15.70
2019-01-31T08:17:40.764Z,17.63
2019-01-31T08:20:14.343Z,17.37
2019-01-31T08:22:47.435Z,17.57
2019-01-31T08:25:20.404Z,14.60
2019-01-31T08:27:53.016Z,12.77
2019-01-31T08:30:26.831Z,12.60
2019-01-31T08:32:58.608Z,11.77
2019-01-31T08:35:31.076Z,11.80
2019-01-31T08:38:06.069Z,11.70
2019-01-31T08:40:37.784Z,13.03
2019-01-31T08:43:11.195Z,14.07
2019-01-31T08:45:42.887Z,13.33
2019-01-31T08:48:16.111Z,11.83
2019-01-31T08:50:47.854Z,13.23
2019-01-31T08:53:20.195Z,12.47
2019-01-31T08:55:51.946Z,15.17
2019-01-31T08:58:24.068Z,13.13
2019-01-31T09:00:55.549Z,13.47
2019-01-31T09:03:27.351Z,13.10
2019-01-31T09:05:58.834Z,12.43
2019-01-31T09:08:31.508Z,12.77
2019-01-31T09:11:04.555Z,15.97
2019-01-31T09:13:38.282Z,17.03
2019-01-31T09:16:10.959Z,13.93
2019-01-31T09:18:42.484Z,15.33
2019-01-31T09:21:38.015Z,15.23
2019-01-31T09:24:41.635Z,18.10
2019-01-31T09:27:51.352Z,15.30
2019-01-31T09:31:00.034Z,18.00
2019-01-31T09:34:09.989Z,16.03
2019-01-31T09:37:31.244Z,17.27
2019-01-31T09:40:32.535Z,12.50
2019-01-31T09:43:26.458Z,13.60
2019-01-31T09:46:09.297Z,13.63
2019-01-31T09:49:21.928Z,12.10
2019-01-31T09:52:46.347Z,13.23
2019-01-31T09:56:13.400Z,13.10
2019-01-31T09:58:56.334Z,12.13
2019-01-31T10:02:11.434Z,11.23
2019-01-31T10:04:57.632Z,10.93
2019-01-31T10:07:58.050Z,10.50
2019-01-31T10:11:03.673Z,10.30
2019-01-31T10:14:22.467Z,11.27
2019-01-31T10:17:56.442Z,10.23
2019-01-31T10:21:02.186Z,9.90
2019-01-31T10:24:08.476Z,9.77
2019-01-31T10:27:00.868Z,9.30
2019-01-31T10:29:53.040Z,8.90
2019-01-31T10:32:37.709Z,7.40
2019-01-31T10:35:49.501Z,8.47
2019-01-31T10:39:08.140Z,8.53
2019-01-31T10:42:36.024Z,7.40
2019-01-31T10:45:38.162Z,8.03
2019-01-31T10:48:44.249Z,8.27
2019-01-31T10:52:18.418Z,8.33
2019-01-31T10:55:22.695Z,8.10
2019-01-31T10:58:31.167Z,8.57
2019-01-31T11:01:22.468Z,8.00
2019-01-31T11:04:22.084Z,9.30
2019-01-31T11:07:41.356Z,9.37
2019-01-31T11:10:38.592Z,10.20
2019-01-31T11:14:15.867Z,10.00
2019-01-31T11:17:03.010Z,9.70
2019-01-31T11:20:18.253Z,9.63
2019-01-31T11:23:59.475Z,10.13
2019-01-31T11:27:26.689Z,10.47
2019-01-31T11:31:00.997Z,10.03
2019-01-31T11:34:09.457Z,9.87
2019-01-31T11:37:01.467Z,10.80
2019-01-31T11:40:11.295Z,11.00
2019-01-31T11:43:11.926Z,11.13
2019-01-31T11:46:05.607Z,9.97
2019-01-31T11:49:17.308Z,10.70
2019-01-31T11:52:42.157Z,10.63
2019-01-31T11:55:41.580Z,11.47
2019-01-31T11:58:48.335Z,11.33
2019-01-31T12:01:19.893Z,11.73
2019-01-31T12:03:54.482Z,9.80
2019-01-31T12:06:27.048Z,9.97
2019-01-31T12:09:00.431Z,10.77
2019-01-31T12:11:32.271Z,9.57
2019-01-31T12:14:03.828Z,9.30
2019-01-31T12:16:35.546Z,10.10
2019-01-31T12:19:07.626Z,9.63
2019-01-31T12:21:39.144Z,11.43
2019-01-31T12:24:16.567Z,9.53
2019-01-31T12:26:44.381Z,10.10
2019-01-31T12:29:16.656Z,10.83
2019-01-31T12:31:48.790Z,10.83
2019-01-31T12:34:20.409Z,11.27
2019-01-31T12:36:52.294Z,10.73
2019-01-31T12:39:23.738Z,9.20
2019-01-31T12:41:55.328Z,8.90
2019-01-31T12:44:26.935Z,9.30
2019-01-31T12:46:59.994Z,9.70
2019-01-31T12:49:32.220Z,9.40
2019-01-31T12:52:04.377Z,9.53
2019-01-31T12:54:36.636Z,10.80
2019-01-31T12:57:08.772Z,10.00
2019-01-31T12:59:40.630Z,9.70
2019-01-31T13:02:13.873Z,11.60
2019-01-31T13:04:45.498Z,10.30
2019-01-31T13:07:17.655Z,10.90
2019-01-31T13:09:49.545Z,10.13
2019-01-31T13:12:21.403Z,10.20
2019-01-31T13:14:53.055Z,11.47
2019-01-31T13:17:24.824Z,11.90
2019-01-31T13:19:58.056Z,10.73
2019-01-31T13:22:30.264Z,9.70
2019-01-31T13:25:02.176Z,10.13
2019-01-31T13:27:35.202Z,9.70
2019-01-31T13:30:07.929Z,10.60
2019-01-31T13:32:41.088Z,12.63
2019-01-31T13:35:13.037Z,11.33
2019-01-31T13:37:44.834Z,13.60
2019-01-31T13:40:19.285Z,15.03
2019-01-31T13:42:51.779Z,15.03
2019-01-31T13:45:26.197Z,15.97
2019-01-31T13:47:59.705Z,15.10
2019-01-31T13:50:31.464Z,15.10
2019-01-31T13:53:03.532Z,15.60
2019-01-31T13:55:35.417Z,14.90
2019-01-31T13:58:10.119Z,14.03
2019-01-31T14:00:41.095Z,13.60
2019-01-31T14:03:14.601Z,13.00
2019-01-31T14:05:46.437Z,14.50
2019-01-31T14:08:19.193Z,15.00
2019-01-31T14:10:50.725Z,15.07
2019-01-31T14:13:22.301Z,14.47
2019-01-31T14:15:54.122Z,15.10
2019-01-31T14:18:27.571Z,13.93
2019-01-31T14:20:59.207Z,14.77
2019-01-31T14:23:33.557Z,13.70
2019-01-31T14:26:05.205Z,13.90
2019-01-31T14:28:38.913Z,13.77
2019-01-31T14:31:10.676Z,13.83
2019-01-31T14:33:42.381Z,13.97
2019-01-31T14:36:13.989Z,14.20
2019-01-31T14:38:46.059Z,17.00
2019-01-31T14:41:17.830Z,16.27
2019-01-31T14:43:49.636Z,16.90
2019-01-31T14:46:23.345Z,16.70
2019-01-31T14:48:54.907Z,17.03
2019-01-31T14:51:27.900Z,19.00
2019-01-31T14:53:59.494Z,18.70
2019-01-31T14:56:32.627Z,20.00
2019-01-31T14:59:04.520Z,20.17
2019-01-31T15:01:36.542Z,20.47
2019-01-31T15:04:09.683Z,19.67
2019-01-31T15:06:42.947Z,19.97
2019-01-31T15:09:16.937Z,18.43
2019-01-31T15:11:48.921Z,18.73
2019-01-31T15:14:31.210Z,19.67
2019-01-31T15:16:54.122Z,19.33
2019-01-31T15:19:26.040Z,18.67
2019-01-31T15:21:57.919Z,17.00
2019-01-31T15:24:29.644Z,16.73
2019-01-31T15:27:01.025Z,17.23
2019-01-31T15:29:32.957Z,18.47
2019-01-31T15:32:04.663Z,17.70
2019-01-31T15:34:36.284Z,16.73
2019-01-31T15:37:07.806Z,16.97
2019-01-31T15:39:40.352Z,18.03
2019-01-31T15:42:12.372Z,16.87
2019-01-31T15:44:43.956Z,18.43
2019-01-31T15:47:17.473Z,17.60
2019-01-31T15:49:48.997Z,17.57
2019-01-31T15:52:21.239Z,17.87
2019-01-31T15:54:52.796Z,17.67
2019-01-31T15:57:25.819Z,18.10
2019-01-31T15:59:58.309Z,17.97
2019-01-31T16:02:30.241Z,18.83
2019-01-31T16:05:03.483Z,19.20
2019-01-31T16:07:36.392Z,17.37
2019-01-31T16:10:08.424Z,16.53
2019-01-31T16:12:41.042Z,17.13
2019-01-31T16:15:13.856Z,14.60
2019-01-31T16:17:45.638Z,16.67
2019-01-31T16:20:17.244Z,16.43
2019-01-31T16:22:49.064Z,15.67
2019-01-31T16:25:20.862Z,15.23
2019-01-31T16:27:52.370Z,14.67
2019-01-31T16:30:24.516Z,14.37
2019-01-31T16:32:56.248Z,13.67
2019-01-31T16:35:29.503Z,13.23
2019-01-31T16:38:01.891Z,14.40
2019-01-31T16:40:33.688Z,13.27
2019-01-31T16:43:07.060Z,12.57
2019-01-31T16:45:38.813Z,12.50
2019-01-31T16:48:12.143Z,12.20
2019-01-31T16:50:44.042Z,12.30
2019-01-31T16:53:15.722Z,12.60
2019-01-31T16:55:47.572Z,11.50
2019-01-31T16:58:20.315Z,12.33
2019-01-31T17:00:52.257Z,13.60
2019-01-31T17:03:23.838Z,14.73
2019-01-31T17:05:55.556Z,17.10
2019-01-31T17:08:27.117Z,19.17
2019-01-31T17:10:58.760Z,17.40
2019-01-31T17:13:33.222Z,15.20
2019-01-31T17:16:05.445Z,14.90
2019-01-31T17:18:37.365Z,18.47
2019-01-31T17:21:09.413Z,16.33
2019-01-31T17:23:41.182Z,14.97
2019-01-31T17:26:12.801Z,13.80
2019-01-31T17:28:44.779Z,14.53
2019-01-31T17:31:16.178Z,14.20
2019-01-31T17:33:47.657Z,14.60
2019-01-31T17:36:19.146Z,16.33
2019-01-31T17:38:51.046Z,15.83
2019-01-31T17:41:22.412Z,16.90
2019-01-31T17:43:54.265Z,17.43
2019-01-31T17:46:26.114Z,17.47
2019-01-31T17:48:57.797Z,18.20
2019-01-31T17:51:29.812Z,18.50
2019-01-31T17:54:01.748Z,18.83
2019-01-31T17:56:33.198Z,22.50
2019-01-31T17:59:04.828Z,24.23
2019-01-31T18:01:36.454Z,22.43
2019-01-31T18:04:07.987Z,17.97
2019-01-31T18:06:41.370Z,18.13
2019-01-31T18:09:12.865Z,18.87
2019-01-31T18:11:44.293Z,17.73
2019-01-31T18:14:16.518Z,23.63
2019-01-31T18:16:48.099Z,28.40
2019-01-31T18:19:20.726Z,28.23
2019-01-31T18:21:53.605Z,25.03
2019-01-31T18:24:26.746Z,22.17
2019-01-31T18:27:00.084Z,19.77
2019-01-31T18:29:33.148Z,17.70
2019-01-31T18:32:06.043Z,17.93
2019-01-31T18:34:37.906Z,17.50
2019-01-31T18:37:09.735Z,17.27
2019-01-31T18:39:41.345Z,19.43
2019-01-31T18:42:14.444Z,18.60
2019-01-31T18:44:46.971Z,16.40
2019-01-31T18:47:19.846Z,15.87
2019-01-31T18:49:52.072Z,16.03
2019-01-31T18:52:23.657Z,17.17
2019-01-31T18:54:55.323Z,16.33
2019-01-31T18:57:27.040Z,17.10
2019-01-31T18:59:59.711Z,16.00
2019-01-31T19:02:32.602Z,16.80
2019-01-31T19:05:05.490Z,15.20
2019-01-31T19:07:37.354Z,16.17
2019-01-31T19:10:10.049Z,17.50
2019-01-31T19:12:42.809Z,19.33
2019-01-31T19:15:16.387Z,18.43
2019-01-31T19:17:48.166Z,21.43
2019-01-31T19:20:24.665Z,17.60
2019-01-31T19:22:58.233Z,19.10
2019-01-31T19:25:32.135Z,16.97
2019-01-31T19:28:03.700Z,15.10
2019-01-31T19:30:37.138Z,15.27
2019-01-31T19:33:09.735Z,17.53
2019-01-31T19:35:44.580Z,15.90
2019-01-31T19:38:16.497Z,16.93
2019-01-31T19:40:48.632Z,15.53
2019-01-31T19:43:21.273Z,18.93
2019-01-31T19:45:54.197Z,15.47
2019-01-31T19:48:28.011Z,17.57
2019-01-31T19:51:00.373Z,14.33
2019-01-31T19:53:34.798Z,14.60
2019-01-31T19:56:08.520Z,13.90
2019-01-31T19:58:40.070Z,13.10
2019-01-31T20:01:11.892Z,15.40
2019-01-31T20:03:43.638Z,18.03
2019-01-31T20:06:15.188Z,15.53
2019-01-31T20:08:47.329Z,15.80
2019-01-31T20:11:22.801Z,15.43
2019-01-31T20:13:55.516Z,16.40
2019-01-31T20:16:29.180Z,14.70
2019-01-31T20:19:00.811Z,15.60
2019-01-31T20:21:32.309Z,14.13
2019-01-31T20:24:04.583Z,13.93
2019-01-31T20:26:36.349Z,14.90
2019-01-31T20:29:08.304Z,15.03
2019-01-31T20:31:39.770Z,17.57
2019-01-31T20:34:11.412Z,19.53
2019-01-31T20:36:44.370Z,17.40
2019-01-31T20:39:15.799Z,21.33
2019-01-31T20:41:54.214Z,24.03
2019-01-31T20:44:21.221Z,14.83
2019-01-31T20:46:53.332Z,13.03
2019-01-31T20:49:25.875Z,12.93
2019-01-31T20:51:57.709Z,12.93
2019-01-31T20:54:29.361Z,12.87
2019-01-31T20:57:01.176Z,12.57
2019-01-31T20:59:32.697Z,12.87
2019-01-31T21:02:04.702Z,12.73
2019-01-31T21:04:39.182Z,12.47
2019-01-31T21:07:11.102Z,12.73
2019-01-31T21:09:43.108Z,12.07
2019-01-31T21:12:14.987Z,11.97
2019-01-31T21:14:47.050Z,12.07
2019-01-31T21:17:19.604Z,11.93
2019-01-31T21:19:56.531Z,12.03
2019-01-31T21:22:30.695Z,12.07
2019-01-31T21:25:04.306Z,12.70
2019-01-31T21:27:36.420Z,12.57
2019-01-31T21:30:11.841Z,12.20
2019-01-31T21:32:44.199Z,12.33
2019-01-31T21:35:17.710Z,12.00
2019-01-31T21:37:50.080Z,11.73
2019-01-31T21:40:22.155Z,12.13
2019-01-31T21:42:54.046Z,12.57
2019-01-31T21:45:26.482Z,11.90
2019-01-31T21:47:59.828Z,12.70
2019-01-31T21:50:35.619Z,12.33
2019-01-31T21:53:09.264Z,11.10
2019-01-31T21:55:40.953Z,11.97
2019-01-31T21:58:12.300Z,11.87
2019-01-31T22:00:43.963Z,12.80
2019-01-31T22:03:15.420Z,12.20
2019-01-31T22:05:47.139Z,11.10
2019-01-31T22:08:19.466Z,11.33
2019-01-31T22:10:51.406Z,12.17
2019-01-31T22:13:23.804Z,12.20
2019-01-31T22:15:56.016Z,11.87
2019-01-31T22:18:28.123Z,11.00
2019-01-31T22:20:59.628Z,11.33
2019-01-31T22:23:32.145Z,12.77
2019-01-31T22:26:03.680Z,11.03
2019-01-31T22:28:35.347Z,11.47
2019-01-31T22:31:07.376Z,10.80
2019-01-31T22:33:40.263Z,10.87
2019-01-31T22:36:12.715Z,11.73
2019-01-31T22:38:45.627Z,11.03
2019-01-31T22:41:17.873Z,11.33
2019-01-31T22:43:49.528Z,10.20
2019-01-31T22:46:21.372Z,10.77
2019-01-31T22:48:52.926Z,11.20
2019-01-31T22:51:26.291Z,11.23
2019-01-31T22:53:57.995Z,11.80
2019-01-31T22:56:29.431Z,11.07
2019-01-31T22:59:00.904Z,10.73
2019-01-31T23:01:43.508Z,11.23
2019-01-31T23:04:14.954Z,11.80
2019-01-31T23:06:46.661Z,12.10
2019-01-31T23:09:18.471Z,12.07
2019-01-31T23:11:50.512Z,12.13
2019-01-31T23:14:22.614Z,12.67
2019-01-31T23:16:54.015Z,12.23
2019-01-31T23:19:25.529Z,13.20
2019-01-31T23:21:57.457Z,12.03
2019-01-31T23:24:29.148Z,13.20
2019-01-31T23:27:01.976Z,13.37
2019-01-31T23:29:33.428Z,12.30
2019-01-31T23:32:06.573Z,13.77
2019-01-31T23:34:38.544Z,13.30
2019-01-31T23:37:10.124Z,12.50
2019-01-31T23:39:41.826Z,13.43
2019-01-31T23:42:13.428Z,12.47
2019-01-31T23:44:45.060Z,13.13
2019-01-31T23:47:19.468Z,13.10
2019-01-31T23:49:50.896Z,13.43
2019-01-31T23:52:22.706Z,13.80
2019-01-31T23:54:54.432Z,13.97
2019-01-31T23:57:26.235Z,13.77
2019-01-31T23:59:59.385Z,12.73
